sensor_id;sensor_type;location;lat;lon;timestamp;P1;durP1;ratioP1;P2;durP2;ratioP2
20997;SDS011;10657;51.276;6.390;2022-09-13T00:00:37;9.30;;;4.18;;
20997;SDS011;10657;51.276;6.390;2022-09-13T00:03:05;10.45;;;4.00;;
20997;SDS011;10657;51.276;6.390;2022-09-13T00:05:32;8.52;;;3.97;;
20997;SDS011;10657;51.276;6.390;2022-09-13T00:07:59;7.47;;;3.95;;
20997;SDS011;10657;51.276;6.390;2022-09-13T00:10:26;8.55;;;4.10;;
20997;SDS011;10657;51.276;6.390;2022-09-13T00:12:53;8.00;;;4.28;;
20997;SDS011;10657;51.276;6.390;2022-09-13T00:15:20;11.13;;;4.32;;
20997;SDS011;10657;51.276;6.390;2022-09-13T00:17:47;7.35;;;3.88;;
20997;SDS011;10657;51.276;6.390;2022-09-13T00:20:14;10.43;;;4.57;;
20997;SDS011;10657;51.276;6.390;2022-09-13T00:22:42;8.32;;;4.18;;
20997;SDS011;10657;51.276;6.390;2022-09-13T00:25:09;8.82;;;4.30;;
20997;SDS011;10657;51.276;6.390;2022-09-13T00:27:36;9.38;;;4.30;;
20997;SDS011;10657;51.276;6.390;2022-09-13T00:30:04;14.40;;;4.30;;
20997;SDS011;10657;51.276;6.390;2022-09-13T00:32:32;7.57;;;3.60;;
20997;SDS011;10657;51.276;6.390;2022-09-13T00:35:00;8.80;;;3.78;;
20997;SDS011;10657;51.276;6.390;2022-09-13T00:37:28;7.10;;;3.60;;
20997;SDS011;10657;51.276;6.390;2022-09-13T00:39:55;6.65;;;3.58;;
20997;SDS011;10657;51.276;6.390;2022-09-13T00:42:25;7.28;;;3.50;;
20997;SDS011;10657;51.276;6.390;2022-09-13T00:44:57;7.75;;;3.60;;
20997;SDS011;10657;51.276;6.390;2022-09-13T00:50:09;7.38;;;3.55;;
20997;SDS011;10657;51.276;6.390;2022-09-13T00:52:37;6.20;;;3.50;;
20997;SDS011;10657;51.276;6.390;2022-09-13T00:55:22;7.05;;;3.63;;
20997;SDS011;10657;51.276;6.390;2022-09-13T00:57:51;6.88;;;3.88;;
20997;SDS011;10657;51.276;6.390;2022-09-13T01:00:19;7.93;;;3.80;;
20997;SDS011;10657;51.276;6.390;2022-09-13T01:02:51;7.53;;;3.90;;
20997;SDS011;10657;51.276;6.390;2022-09-13T01:05:20;10.20;;;3.83;;
20997;SDS011;10657;51.276;6.390;2022-09-13T01:07:48;8.00;;;4.15;;
20997;SDS011;10657;51.276;6.390;2022-09-13T01:10:16;7.32;;;3.70;;
20997;SDS011;10657;51.276;6.390;2022-09-13T01:12:49;8.65;;;3.83;;
20997;SDS011;10657;51.276;6.390;2022-09-13T01:15:18;8.55;;;4.50;;
20997;SDS011;10657;51.276;6.390;2022-09-13T01:17:45;7.25;;;3.65;;
20997;SDS011;10657;51.276;6.390;2022-09-13T01:20:12;8.18;;;3.40;;
20997;SDS011;10657;51.276;6.390;2022-09-13T01:27:56;7.28;;;4.05;;
20997;SDS011;10657;51.276;6.390;2022-09-13T01:30:36;10.82;;;3.92;;
20997;SDS011;10657;51.276;6.390;2022-09-13T01:36:12;6.88;;;3.72;;
20997;SDS011;10657;51.276;6.390;2022-09-13T01:41:33;10.90;;;3.88;;
20997;SDS011;10657;51.276;6.390;2022-09-13T01:52:19;6.40;;;3.25;;
20997;SDS011;10657;51.276;6.390;2022-09-13T01:57:15;7.18;;;3.25;;
20997;SDS011;10657;51.276;6.390;2022-09-13T01:59:50;6.78;;;3.42;;
20997;SDS011;10657;51.276;6.390;2022-09-13T02:02:20;6.30;;;3.42;;
20997;SDS011;10657;51.276;6.390;2022-09-13T02:04:50;6.93;;;3.40;;
20997;SDS011;10657;51.276;6.390;2022-09-13T02:07:20;7.97;;;3.58;;
20997;SDS011;10657;51.276;6.390;2022-09-13T02:09:55;6.28;;;3.08;;
20997;SDS011;10657;51.276;6.390;2022-09-13T02:12:25;10.63;;;3.30;;
20997;SDS011;10657;51.276;6.390;2022-09-13T02:14:55;7.28;;;3.25;;
20997;SDS011;10657;51.276;6.390;2022-09-13T02:17:25;6.93;;;3.15;;
20997;SDS011;10657;51.276;6.390;2022-09-13T02:19:56;9.07;;;3.05;;
20997;SDS011;10657;51.276;6.390;2022-09-13T02:22:27;10.10;;;3.30;;
20997;SDS011;10657;51.276;6.390;2022-09-13T02:25:08;6.38;;;2.95;;
20997;SDS011;10657;51.276;6.390;2022-09-13T02:27:35;5.43;;;2.88;;
20997;SDS011;10657;51.276;6.390;2022-09-13T02:30:05;9.13;;;3.15;;
20997;SDS011;10657;51.276;6.390;2022-09-13T02:32:35;9.05;;;2.92;;
20997;SDS011;10657;51.276;6.390;2022-09-13T02:35:11;7.18;;;3.10;;
20997;SDS011;10657;51.276;6.390;2022-09-13T02:37:40;5.55;;;2.80;;
20997;SDS011;10657;51.276;6.390;2022-09-13T02:40:09;7.88;;;3.15;;
20997;SDS011;10657;51.276;6.390;2022-09-13T02:42:41;5.88;;;2.80;;
20997;SDS011;10657;51.276;6.390;2022-09-13T02:45:09;5.60;;;2.95;;
20997;SDS011;10657;51.276;6.390;2022-09-13T02:58:41;8.57;;;3.10;;
20997;SDS011;10657;51.276;6.390;2022-09-13T03:00:52;6.20;;;3.28;;
20997;SDS011;10657;51.276;6.390;2022-09-13T03:03:19;6.65;;;3.05;;
20997;SDS011;10657;51.276;6.390;2022-09-13T03:05:47;7.32;;;3.40;;
20997;SDS011;10657;51.276;6.390;2022-09-13T03:08:14;6.30;;;3.35;;
20997;SDS011;10657;51.276;6.390;2022-09-13T03:10:46;6.10;;;3.20;;
20997;SDS011;10657;51.276;6.390;2022-09-13T03:13:19;8.57;;;3.03;;
20997;SDS011;10657;51.276;6.390;2022-09-13T03:18:42;6.22;;;3.13;;
20997;SDS011;10657;51.276;6.390;2022-09-13T03:21:18;6.93;;;3.25;;
20997;SDS011;10657;51.276;6.390;2022-09-13T03:31:29;7.40;;;3.40;;
20997;SDS011;10657;51.276;6.390;2022-09-13T03:36:26;10.90;;;3.80;;
20997;SDS011;10657;51.276;6.390;2022-09-13T03:41:53;6.18;;;3.28;;
20997;SDS011;10657;51.276;6.390;2022-09-13T03:44:22;7.07;;;2.72;;
20997;SDS011;10657;51.276;6.390;2022-09-13T03:46:54;7.55;;;3.20;;
20997;SDS011;10657;51.276;6.390;2022-09-13T03:49:23;8.05;;;3.05;;
20997;SDS011;10657;51.276;6.390;2022-09-13T03:51:52;7.50;;;3.17;;
20997;SDS011;10657;51.276;6.390;2022-09-13T03:54:23;10.15;;;3.45;;
20997;SDS011;10657;51.276;6.390;2022-09-13T03:59:54;6.10;;;3.05;;
20997;SDS011;10657;51.276;6.390;2022-09-13T04:02:23;10.48;;;3.00;;
20997;SDS011;10657;51.276;6.390;2022-09-13T04:04:51;6.72;;;2.90;;
20997;SDS011;10657;51.276;6.390;2022-09-13T04:07:19;6.88;;;3.00;;
20997;SDS011;10657;51.276;6.390;2022-09-13T04:09:46;8.30;;;3.15;;
20997;SDS011;10657;51.276;6.390;2022-09-13T04:12:15;15.05;;;3.53;;
20997;SDS011;10657;51.276;6.390;2022-09-13T04:14:42;9.25;;;2.95;;
20997;SDS011;10657;51.276;6.390;2022-09-13T04:17:09;7.10;;;2.83;;
20997;SDS011;10657;51.276;6.390;2022-09-13T04:19:37;10.32;;;3.33;;
20997;SDS011;10657;51.276;6.390;2022-09-13T04:22:04;6.88;;;3.13;;
20997;SDS011;10657;51.276;6.390;2022-09-13T04:24:31;8.63;;;2.88;;
20997;SDS011;10657;51.276;6.390;2022-09-13T04:26:59;6.95;;;2.90;;
20997;SDS011;10657;51.276;6.390;2022-09-13T04:29:27;9.23;;;3.50;;
20997;SDS011;10657;51.276;6.390;2022-09-13T04:31:54;8.75;;;3.22;;
20997;SDS011;10657;51.276;6.390;2022-09-13T04:34:21;7.10;;;3.15;;
20997;SDS011;10657;51.276;6.390;2022-09-13T04:36:49;6.00;;;2.80;;
20997;SDS011;10657;51.276;6.390;2022-09-13T04:39:17;8.23;;;3.40;;
20997;SDS011;10657;51.276;6.390;2022-09-13T04:41:45;7.78;;;2.90;;
20997;SDS011;10657;51.276;6.390;2022-09-13T04:44:13;7.07;;;3.10;;
20997;SDS011;10657;51.276;6.390;2022-09-13T04:46:41;12.40;;;3.60;;
20997;SDS011;10657;51.276;6.390;2022-09-13T04:49:09;6.35;;;2.88;;
20997;SDS011;10657;51.276;6.390;2022-09-13T04:51:36;9.07;;;3.28;;
20997;SDS011;10657;51.276;6.390;2022-09-13T04:54:03;6.38;;;2.97;;
20997;SDS011;10657;51.276;6.390;2022-09-13T04:56:30;12.57;;;3.65;;
20997;SDS011;10657;51.276;6.390;2022-09-13T04:58:57;8.73;;;3.47;;
20997;SDS011;10657;51.276;6.390;2022-09-13T05:01:25;7.30;;;3.33;;
20997;SDS011;10657;51.276;6.390;2022-09-13T05:03:53;8.98;;;3.33;;
20997;SDS011;10657;51.276;6.390;2022-09-13T05:06:20;12.90;;;3.78;;
20997;SDS011;10657;51.276;6.390;2022-09-13T05:08:49;8.25;;;3.40;;
20997;SDS011;10657;51.276;6.390;2022-09-13T05:11:17;6.80;;;3.22;;
20997;SDS011;10657;51.276;6.390;2022-09-13T05:13:47;9.32;;;3.47;;
20997;SDS011;10657;51.276;6.390;2022-09-13T05:16:17;7.78;;;3.90;;
20997;SDS011;10657;51.276;6.390;2022-09-13T05:18:45;8.75;;;3.47;;
20997;SDS011;10657;51.276;6.390;2022-09-13T05:21:12;10.50;;;3.80;;
20997;SDS011;10657;51.276;6.390;2022-09-13T05:23:39;8.73;;;3.78;;
20997;SDS011;10657;51.276;6.390;2022-09-13T05:26:06;10.18;;;3.00;;
20997;SDS011;10657;51.276;6.390;2022-09-13T05:28:34;11.30;;;3.63;;
20997;SDS011;10657;51.276;6.390;2022-09-13T05:31:06;8.43;;;3.25;;
20997;SDS011;10657;51.276;6.390;2022-09-13T05:33:34;7.47;;;3.38;;
20997;SDS011;10657;51.276;6.390;2022-09-13T05:36:02;8.38;;;3.30;;
20997;SDS011;10657;51.276;6.390;2022-09-13T05:38:29;8.70;;;2.97;;
20997;SDS011;10657;51.276;6.390;2022-09-13T05:40:57;8.00;;;3.95;;
20997;SDS011;10657;51.276;6.390;2022-09-13T05:43:25;13.30;;;3.60;;
20997;SDS011;10657;51.276;6.390;2022-09-13T05:46:01;8.68;;;3.50;;
20997;SDS011;10657;51.276;6.390;2022-09-13T05:48:29;10.48;;;3.78;;
20997;SDS011;10657;51.276;6.390;2022-09-13T05:50:56;11.27;;;3.53;;
20997;SDS011;10657;51.276;6.390;2022-09-13T05:53:29;11.23;;;3.35;;
20997;SDS011;10657;51.276;6.390;2022-09-13T05:55:56;8.25;;;3.75;;
20997;SDS011;10657;51.276;6.390;2022-09-13T05:58:23;12.40;;;3.90;;
20997;SDS011;10657;51.276;6.390;2022-09-13T06:00:52;9.70;;;3.80;;
20997;SDS011;10657;51.276;6.390;2022-09-13T06:03:19;13.50;;;3.70;;
20997;SDS011;10657;51.276;6.390;2022-09-13T06:05:46;15.77;;;3.60;;
20997;SDS011;10657;51.276;6.390;2022-09-13T06:08:14;9.40;;;3.20;;
20997;SDS011;10657;51.276;6.390;2022-09-13T06:10:41;10.65;;;3.33;;
20997;SDS011;10657;51.276;6.390;2022-09-13T06:13:08;10.73;;;3.20;;
20997;SDS011;10657;51.276;6.390;2022-09-13T06:15:35;7.25;;;3.25;;
20997;SDS011;10657;51.276;6.390;2022-09-13T06:18:08;7.32;;;2.80;;
20997;SDS011;10657;51.276;6.390;2022-09-13T06:20:35;7.53;;;3.70;;
20997;SDS011;10657;51.276;6.390;2022-09-13T06:23:02;8.52;;;3.17;;
20997;SDS011;10657;51.276;6.390;2022-09-13T06:25:29;13.95;;;3.40;;
20997;SDS011;10657;51.276;6.390;2022-09-13T06:27:56;14.27;;;3.38;;
20997;SDS011;10657;51.276;6.390;2022-09-13T06:30:23;8.50;;;3.03;;
20997;SDS011;10657;51.276;6.390;2022-09-13T06:32:51;13.55;;;3.50;;
20997;SDS011;10657;51.276;6.390;2022-09-13T06:35:18;11.00;;;3.05;;
20997;SDS011;10657;51.276;6.390;2022-09-13T06:37:45;10.13;;;3.15;;
20997;SDS011;10657;51.276;6.390;2022-09-13T06:40:12;12.45;;;3.00;;
20997;SDS011;10657;51.276;6.390;2022-09-13T06:42:39;8.27;;;3.45;;
20997;SDS011;10657;51.276;6.390;2022-09-13T06:45:06;7.50;;;2.92;;
20997;SDS011;10657;51.276;6.390;2022-09-13T06:47:33;8.88;;;3.25;;
20997;SDS011;10657;51.276;6.390;2022-09-13T06:50:00;7.10;;;2.80;;
20997;SDS011;10657;51.276;6.390;2022-09-13T06:52:28;7.85;;;3.15;;
20997;SDS011;10657;51.276;6.390;2022-09-13T06:54:55;8.85;;;3.13;;
20997;SDS011;10657;51.276;6.390;2022-09-13T06:57:22;7.82;;;3.17;;
20997;SDS011;10657;51.276;6.390;2022-09-13T06:59:49;6.05;;;3.10;;
20997;SDS011;10657;51.276;6.390;2022-09-13T07:02:16;10.52;;;3.58;;
20997;SDS011;10657;51.276;6.390;2022-09-13T07:04:43;7.68;;;3.70;;
20997;SDS011;10657;51.276;6.390;2022-09-13T07:07:10;10.23;;;3.85;;
20997;SDS011;10657;51.276;6.390;2022-09-13T07:09:37;9.80;;;3.42;;
20997;SDS011;10657;51.276;6.390;2022-09-13T07:12:07;8.15;;;3.50;;
20997;SDS011;10657;51.276;6.390;2022-09-13T07:14:36;6.90;;;3.20;;
20997;SDS011;10657;51.276;6.390;2022-09-13T07:17:03;9.93;;;3.15;;
20997;SDS011;10657;51.276;6.390;2022-09-13T07:19:30;8.82;;;3.28;;
20997;SDS011;10657;51.276;6.390;2022-09-13T07:21:57;8.30;;;3.45;;
20997;SDS011;10657;51.276;6.390;2022-09-13T07:24:24;8.85;;;3.45;;
20997;SDS011;10657;51.276;6.390;2022-09-13T07:26:52;7.85;;;3.38;;
20997;SDS011;10657;51.276;6.390;2022-09-13T07:29:20;8.60;;;3.67;;
20997;SDS011;10657;51.276;6.390;2022-09-13T07:31:49;9.98;;;3.97;;
20997;SDS011;10657;51.276;6.390;2022-09-13T07:34:21;7.35;;;3.50;;
20997;SDS011;10657;51.276;6.390;2022-09-13T07:36:48;6.90;;;3.33;;
20997;SDS011;10657;51.276;6.390;2022-09-13T07:39:16;9.85;;;3.63;;
20997;SDS011;10657;51.276;6.390;2022-09-13T07:41:48;6.75;;;3.70;;
20997;SDS011;10657;51.276;6.390;2022-09-13T07:44:15;7.70;;;3.72;;
20997;SDS011;10657;51.276;6.390;2022-09-13T07:46:42;8.13;;;4.00;;
20997;SDS011;10657;51.276;6.390;2022-09-13T07:49:10;8.60;;;3.90;;
20997;SDS011;10657;51.276;6.390;2022-09-13T07:51:37;8.50;;;4.13;;
20997;SDS011;10657;51.276;6.390;2022-09-13T07:54:06;8.05;;;3.72;;
20997;SDS011;10657;51.276;6.390;2022-09-13T07:56:34;9.50;;;3.88;;
20997;SDS011;10657;51.276;6.390;2022-09-13T07:59:02;7.70;;;4.43;;
20997;SDS011;10657;51.276;6.390;2022-09-13T08:01:49;10.02;;;4.32;;
20997;SDS011;10657;51.276;6.390;2022-09-13T08:04:18;7.68;;;4.18;;
20997;SDS011;10657;51.276;6.390;2022-09-13T08:06:46;8.27;;;4.45;;
20997;SDS011;10657;51.276;6.390;2022-09-13T08:09:13;8.63;;;4.43;;
20997;SDS011;10657;51.276;6.390;2022-09-13T08:11:42;8.32;;;4.45;;
20997;SDS011;10657;51.276;6.390;2022-09-13T08:14:10;10.10;;;4.85;;
20997;SDS011;10657;51.276;6.390;2022-09-13T08:16:38;10.27;;;4.57;;
20997;SDS011;10657;51.276;6.390;2022-09-13T08:19:05;8.98;;;4.70;;
20997;SDS011;10657;51.276;6.390;2022-09-13T08:21:34;9.00;;;4.15;;
20997;SDS011;10657;51.276;6.390;2022-09-13T08:24:02;7.95;;;4.28;;
20997;SDS011;10657;51.276;6.390;2022-09-13T08:26:30;9.35;;;5.10;;
20997;SDS011;10657;51.276;6.390;2022-09-13T08:29:01;16.13;;;5.68;;
20997;SDS011;10657;51.276;6.390;2022-09-13T08:31:29;12.57;;;5.18;;
20997;SDS011;10657;51.276;6.390;2022-09-13T08:33:56;10.02;;;4.90;;
20997;SDS011;10657;51.276;6.390;2022-09-13T08:36:24;10.38;;;5.03;;
20997;SDS011;10657;51.276;6.390;2022-09-13T08:38:52;10.57;;;4.88;;
20997;SDS011;10657;51.276;6.390;2022-09-13T08:41:26;9.60;;;5.30;;
20997;SDS011;10657;51.276;6.390;2022-09-13T08:44:04;11.80;;;5.45;;
20997;SDS011;10657;51.276;6.390;2022-09-13T08:46:35;12.10;;;5.50;;
20997;SDS011;10657;51.276;6.390;2022-09-13T08:49:06;10.60;;;5.53;;
20997;SDS011;10657;51.276;6.390;2022-09-13T08:51:41;12.30;;;6.28;;
20997;SDS011;10657;51.276;6.390;2022-09-13T08:54:12;11.20;;;6.25;;
20997;SDS011;10657;51.276;6.390;2022-09-13T09:09:41;12.63;;;7.25;;
20997;SDS011;10657;51.276;6.390;2022-09-13T09:14:40;16.60;;;8.43;;
20997;SDS011;10657;51.276;6.390;2022-09-13T09:17:12;13.05;;;7.78;;
20997;SDS011;10657;51.276;6.390;2022-09-13T09:19:44;18.05;;;7.93;;
20997;SDS011;10657;51.276;6.390;2022-09-13T09:22:15;11.95;;;7.63;;
20997;SDS011;10657;51.276;6.390;2022-09-13T09:24:50;16.25;;;8.15;;
20997;SDS011;10657;51.276;6.390;2022-09-13T09:27:19;16.63;;;8.98;;
20997;SDS011;10657;51.276;6.390;2022-09-13T09:29:48;15.85;;;9.05;;
20997;SDS011;10657;51.276;6.390;2022-09-13T09:37:29;14.70;;;9.10;;
20997;SDS011;10657;51.276;6.390;2022-09-13T09:39:57;15.85;;;9.88;;
20997;SDS011;10657;51.276;6.390;2022-09-13T09:42:28;16.50;;;10.27;;
20997;SDS011;10657;51.276;6.390;2022-09-13T09:45:03;16.15;;;9.25;;
20997;SDS011;10657;51.276;6.390;2022-09-13T09:47:33;14.18;;;9.30;;
20997;SDS011;10657;51.276;6.390;2022-09-13T09:50:05;15.38;;;9.50;;
20997;SDS011;10657;51.276;6.390;2022-09-13T09:52:39;18.33;;;9.98;;
20997;SDS011;10657;51.276;6.390;2022-09-13T09:55:17;18.73;;;9.88;;
20997;SDS011;10657;51.276;6.390;2022-09-13T10:00:21;16.27;;;9.23;;
20997;SDS011;10657;51.276;6.390;2022-09-13T10:02:50;14.48;;;9.93;;
20997;SDS011;10657;51.276;6.390;2022-09-13T10:05:19;17.00;;;9.65;;
20997;SDS011;10657;51.276;6.390;2022-09-13T10:07:53;14.75;;;8.80;;
20997;SDS011;10657;51.276;6.390;2022-09-13T10:10:25;14.40;;;8.60;;
20997;SDS011;10657;51.276;6.390;2022-09-13T10:12:53;16.40;;;8.02;;
20997;SDS011;10657;51.276;6.390;2022-09-13T10:15:23;13.10;;;7.43;;
20997;SDS011;10657;51.276;6.390;2022-09-13T10:20:28;15.20;;;5.82;;
20997;SDS011;10657;51.276;6.390;2022-09-13T10:25:36;11.70;;;7.40;;
20997;SDS011;10657;51.276;6.390;2022-09-13T10:28:03;11.75;;;6.50;;
20997;SDS011;10657;51.276;6.390;2022-09-13T10:30:35;11.30;;;6.88;;
20997;SDS011;10657;51.276;6.390;2022-09-13T10:33:03;14.57;;;7.95;;
20997;SDS011;10657;51.276;6.390;2022-09-13T10:35:31;13.00;;;7.93;;
20997;SDS011;10657;51.276;6.390;2022-09-13T10:37:59;12.18;;;6.15;;
20997;SDS011;10657;51.276;6.390;2022-09-13T10:40:29;13.15;;;7.68;;
20997;SDS011;10657;51.276;6.390;2022-09-13T10:42:59;11.48;;;6.32;;
20997;SDS011;10657;51.276;6.390;2022-09-13T10:45:28;10.07;;;5.18;;
20997;SDS011;10657;51.276;6.390;2022-09-13T10:48:04;6.53;;;3.05;;
20997;SDS011;10657;51.276;6.390;2022-09-13T10:50:32;9.55;;;4.80;;
20997;SDS011;10657;51.276;6.390;2022-09-13T10:53:01;9.05;;;4.15;;
20997;SDS011;10657;51.276;6.390;2022-09-13T10:55:31;10.45;;;3.50;;
20997;SDS011;10657;51.276;6.390;2022-09-13T11:30:08;8.10;;;4.65;;
20997;SDS011;10657;51.276;6.390;2022-09-13T11:40:54;11.02;;;5.13;;
20997;SDS011;10657;51.276;6.390;2022-09-13T11:46:14;10.95;;;3.75;;
20997;SDS011;10657;51.276;6.390;2022-09-13T11:48:50;9.25;;;4.63;;
20997;SDS011;10657;51.276;6.390;2022-09-13T11:56:37;9.88;;;5.10;;
20997;SDS011;10657;51.276;6.390;2022-09-13T11:59:14;8.63;;;5.38;;
20997;SDS011;10657;51.276;6.390;2022-09-13T12:01:45;10.85;;;4.93;;
20997;SDS011;10657;51.276;6.390;2022-09-13T12:04:19;9.98;;;4.97;;
20997;SDS011;10657;51.276;6.390;2022-09-13T12:06:54;9.35;;;4.90;;
20997;SDS011;10657;51.276;6.390;2022-09-13T12:09:27;9.50;;;3.45;;
20997;SDS011;10657;51.276;6.390;2022-09-13T12:12:02;9.82;;;5.20;;
20997;SDS011;10657;51.276;6.390;2022-09-13T12:14:31;10.75;;;5.43;;
20997;SDS011;10657;51.276;6.390;2022-09-13T12:23:22;10.02;;;4.57;;
20997;SDS011;10657;51.276;6.390;2022-09-13T12:25:53;8.63;;;4.57;;
20997;SDS011;10657;51.276;6.390;2022-09-13T12:28:22;11.45;;;4.38;;
20997;SDS011;10657;51.276;6.390;2022-09-13T12:30:52;9.57;;;4.88;;
20997;SDS011;10657;51.276;6.390;2022-09-13T12:33:20;9.48;;;4.05;;
20997;SDS011;10657;51.276;6.390;2022-09-13T12:35:49;10.77;;;5.65;;
20997;SDS011;10657;51.276;6.390;2022-09-13T12:41:08;11.32;;;5.82;;
20997;SDS011;10657;51.276;6.390;2022-09-13T12:46:35;12.48;;;5.68;;
20997;SDS011;10657;51.276;6.390;2022-09-13T13:02:34;7.32;;;3.63;;
20997;SDS011;10657;51.276;6.390;2022-09-13T13:05:15;8.25;;;4.60;;
20997;SDS011;10657;51.276;6.390;2022-09-13T13:07:48;9.55;;;3.80;;
20997;SDS011;10657;51.276;6.390;2022-09-13T13:10:30;7.22;;;4.25;;
20997;SDS011;10657;51.276;6.390;2022-09-13T13:13:21;9.35;;;4.00;;
20997;SDS011;10657;51.276;6.390;2022-09-13T13:33:51;8.80;;;3.80;;
20997;SDS011;10657;51.276;6.390;2022-09-13T13:36:22;8.32;;;4.13;;
20997;SDS011;10657;51.276;6.390;2022-09-13T13:38:50;7.80;;;3.58;;
20997;SDS011;10657;51.276;6.390;2022-09-13T13:46:46;7.90;;;3.33;;
20997;SDS011;10657;51.276;6.390;2022-09-13T13:57:24;8.73;;;4.35;;
20997;SDS011;10657;51.276;6.390;2022-09-13T13:59:57;9.02;;;4.63;;
20997;SDS011;10657;51.276;6.390;2022-09-13T14:02:34;10.45;;;4.22;;
20997;SDS011;10657;51.276;6.390;2022-09-13T14:05:12;8.25;;;3.88;;
20997;SDS011;10657;51.276;6.390;2022-09-13T14:10:41;8.98;;;4.00;;
20997;SDS011;10657;51.276;6.390;2022-09-13T14:15:43;9.75;;;4.20;;
20997;SDS011;10657;51.276;6.390;2022-09-13T14:18:32;9.40;;;4.38;;
20997;SDS011;10657;51.276;6.390;2022-09-13T14:21:08;11.27;;;5.20;;
20997;SDS011;10657;51.276;6.390;2022-09-13T14:23:43;8.95;;;4.28;;
20997;SDS011;10657;51.276;6.390;2022-09-13T14:26:10;9.35;;;3.80;;
20997;SDS011;10657;51.276;6.390;2022-09-13T14:28:38;7.45;;;3.65;;
20997;SDS011;10657;51.276;6.390;2022-09-13T14:31:05;10.80;;;4.43;;
20997;SDS011;10657;51.276;6.390;2022-09-13T14:33:33;9.32;;;3.50;;
20997;SDS011;10657;51.276;6.390;2022-09-13T14:38:29;7.82;;;4.03;;
20997;SDS011;10657;51.276;6.390;2022-09-13T14:41:14;11.10;;;4.28;;
20997;SDS011;10657;51.276;6.390;2022-09-13T14:43:44;10.93;;;4.50;;
20997;SDS011;10657;51.276;6.390;2022-09-13T14:51:14;9.10;;;5.20;;
20997;SDS011;10657;51.276;6.390;2022-09-13T14:53:44;12.25;;;5.50;;
20997;SDS011;10657;51.276;6.390;2022-09-13T14:56:14;13.65;;;5.68;;
20997;SDS011;10657;51.276;6.390;2022-09-13T14:58:51;9.57;;;5.25;;
20997;SDS011;10657;51.276;6.390;2022-09-13T15:01:20;10.02;;;6.28;;
20997;SDS011;10657;51.276;6.390;2022-09-13T15:03:48;12.43;;;5.80;;
20997;SDS011;10657;51.276;6.390;2022-09-13T15:06:21;16.05;;;6.88;;
20997;SDS011;10657;51.276;6.390;2022-09-13T15:08:49;14.68;;;8.75;;
20997;SDS011;10657;51.276;6.390;2022-09-13T15:11:30;14.15;;;8.40;;
20997;SDS011;10657;51.276;6.390;2022-09-13T15:14:02;14.95;;;9.88;;
20997;SDS011;10657;51.276;6.390;2022-09-13T15:16:29;14.10;;;9.00;;
20997;SDS011;10657;51.276;6.390;2022-09-13T15:21:43;16.63;;;9.35;;
20997;SDS011;10657;51.276;6.390;2022-09-13T15:24:20;14.80;;;9.10;;
20997;SDS011;10657;51.276;6.390;2022-09-13T15:26:47;11.35;;;7.68;;
20997;SDS011;10657;51.276;6.390;2022-09-13T15:29:16;14.73;;;8.20;;
20997;SDS011;10657;51.276;6.390;2022-09-13T15:31:44;16.42;;;9.60;;
20997;SDS011;10657;51.276;6.390;2022-09-13T15:37:33;12.27;;;8.13;;
20997;SDS011;10657;51.276;6.390;2022-09-13T15:39:41;14.07;;;8.23;;
20997;SDS011;10657;51.276;6.390;2022-09-13T15:42:08;17.55;;;9.93;;
20997;SDS011;10657;51.276;6.390;2022-09-13T15:44:35;17.20;;;10.63;;
20997;SDS011;10657;51.276;6.390;2022-09-13T15:47:08;17.25;;;9.88;;
20997;SDS011;10657;51.276;6.390;2022-09-13T15:49:36;16.20;;;11.50;;
20997;SDS011;10657;51.276;6.390;2022-09-13T15:52:04;15.57;;;10.10;;
20997;SDS011;10657;51.276;6.390;2022-09-13T15:54:32;12.75;;;8.52;;
20997;SDS011;10657;51.276;6.390;2022-09-13T15:56:59;16.98;;;8.48;;
20997;SDS011;10657;51.276;6.390;2022-09-13T15:59:26;12.98;;;8.00;;
20997;SDS011;10657;51.276;6.390;2022-09-13T16:01:53;15.13;;;9.13;;
20997;SDS011;10657;51.276;6.390;2022-09-13T16:04:21;16.52;;;8.88;;
20997;SDS011;10657;51.276;6.390;2022-09-13T16:06:48;13.50;;;8.07;;
20997;SDS011;10657;51.276;6.390;2022-09-13T16:09:19;17.30;;;8.80;;
20997;SDS011;10657;51.276;6.390;2022-09-13T16:11:47;12.88;;;8.75;;
20997;SDS011;10657;51.276;6.390;2022-09-13T16:14:14;14.68;;;8.27;;
20997;SDS011;10657;51.276;6.390;2022-09-13T16:16:42;16.00;;;9.27;;
20997;SDS011;10657;51.276;6.390;2022-09-13T16:19:12;14.18;;;8.80;;
20997;SDS011;10657;51.276;6.390;2022-09-13T16:21:40;14.80;;;9.10;;
20997;SDS011;10657;51.276;6.390;2022-09-13T16:24:07;12.68;;;9.00;;
20997;SDS011;10657;51.276;6.390;2022-09-13T16:26:34;16.27;;;10.10;;
20997;SDS011;10657;51.276;6.390;2022-09-13T16:29:01;16.75;;;10.07;;
20997;SDS011;10657;51.276;6.390;2022-09-13T16:31:28;17.50;;;9.40;;
20997;SDS011;10657;51.276;6.390;2022-09-13T16:33:55;13.30;;;8.98;;
20997;SDS011;10657;51.276;6.390;2022-09-13T16:36:23;13.32;;;8.80;;
20997;SDS011;10657;51.276;6.390;2022-09-13T16:38:52;16.58;;;9.75;;
20997;SDS011;10657;51.276;6.390;2022-09-13T16:41:19;15.98;;;9.43;;
20997;SDS011;10657;51.276;6.390;2022-09-13T16:43:47;14.07;;;9.20;;
20997;SDS011;10657;51.276;6.390;2022-09-13T16:46:14;16.33;;;9.65;;
20997;SDS011;10657;51.276;6.390;2022-09-13T16:48:43;14.75;;;9.60;;
20997;SDS011;10657;51.276;6.390;2022-09-13T16:51:10;15.20;;;9.68;;
20997;SDS011;10657;51.276;6.390;2022-09-13T16:53:38;16.05;;;8.80;;
20997;SDS011;10657;51.276;6.390;2022-09-13T16:56:13;17.08;;;9.93;;
20997;SDS011;10657;51.276;6.390;2022-09-13T16:58:42;17.38;;;9.57;;
20997;SDS011;10657;51.276;6.390;2022-09-13T17:01:10;16.35;;;11.25;;
20997;SDS011;10657;51.276;6.390;2022-09-13T17:03:38;18.00;;;10.07;;
20997;SDS011;10657;51.276;6.390;2022-09-13T17:06:07;14.93;;;9.98;;
20997;SDS011;10657;51.276;6.390;2022-09-13T17:08:34;16.35;;;9.77;;
20997;SDS011;10657;51.276;6.390;2022-09-13T17:11:04;15.18;;;10.32;;
20997;SDS011;10657;51.276;6.390;2022-09-13T17:13:31;17.15;;;10.68;;
20997;SDS011;10657;51.276;6.390;2022-09-13T17:15:58;19.08;;;11.30;;
20997;SDS011;10657;51.276;6.390;2022-09-13T17:18:25;14.38;;;10.13;;
20997;SDS011;10657;51.276;6.390;2022-09-13T17:20:52;16.10;;;9.57;;
20997;SDS011;10657;51.276;6.390;2022-09-13T17:23:19;16.92;;;10.63;;
20997;SDS011;10657;51.276;6.390;2022-09-13T17:25:47;15.65;;;10.25;;
20997;SDS011;10657;51.276;6.390;2022-09-13T17:28:15;17.25;;;9.80;;
20997;SDS011;10657;51.276;6.390;2022-09-13T17:30:42;16.90;;;9.75;;
20997;SDS011;10657;51.276;6.390;2022-09-13T17:33:10;22.52;;;9.10;;
20997;SDS011;10657;51.276;6.390;2022-09-13T17:35:37;18.20;;;10.40;;
20997;SDS011;10657;51.276;6.390;2022-09-13T17:38:04;17.65;;;10.23;;
20997;SDS011;10657;51.276;6.390;2022-09-13T17:40:31;18.92;;;11.27;;
20997;SDS011;10657;51.276;6.390;2022-09-13T17:42:58;17.77;;;11.60;;
20997;SDS011;10657;51.276;6.390;2022-09-13T17:45:26;18.30;;;13.15;;
20997;SDS011;10657;51.276;6.390;2022-09-13T17:47:54;25.58;;;13.52;;
20997;SDS011;10657;51.276;6.390;2022-09-13T17:50:21;19.10;;;12.45;;
20997;SDS011;10657;51.276;6.390;2022-09-13T17:52:49;19.35;;;13.35;;
20997;SDS011;10657;51.276;6.390;2022-09-13T17:55:17;19.45;;;12.65;;
20997;SDS011;10657;51.276;6.390;2022-09-13T17:57:46;17.63;;;12.73;;
20997;SDS011;10657;51.276;6.390;2022-09-13T18:00:14;15.50;;;11.70;;
20997;SDS011;10657;51.276;6.390;2022-09-13T18:02:44;19.33;;;10.63;;
20997;SDS011;10657;51.276;6.390;2022-09-13T18:05:11;17.55;;;11.63;;
20997;SDS011;10657;51.276;6.390;2022-09-13T18:07:39;18.08;;;11.73;;
20997;SDS011;10657;51.276;6.390;2022-09-13T18:10:06;21.13;;;11.90;;
20997;SDS011;10657;51.276;6.390;2022-09-13T18:12:53;14.45;;;10.77;;
20997;SDS011;10657;51.276;6.390;2022-09-13T18:15:20;14.40;;;10.15;;
20997;SDS011;10657;51.276;6.390;2022-09-13T18:17:47;15.52;;;10.05;;
20997;SDS011;10657;51.276;6.390;2022-09-13T18:20:14;17.50;;;10.55;;